INFORMACIÓN METAR y TAF
METAR FOR LHBP
ADDS - METARS form results

(0937 UTC 21 April 2018)
Data provider http://aviationweather.gov/adds/metars/
 
METAR text: LHBP 210930Z 23007KT 190V260 CAVOK 21/06 Q1022 NOSIG
Conditions at: LHBP (BUDAPEST/FERIHEG, HU) observed 0930 UTC 21 April 2018
Temperature: 21.0°C (70°F)
Dewpoint: 6.0°C (43°F) [RH = 38%]
Pressure (altimeter): 30.18 inches Hg (1022.0 mb)
Winds: from the SW (230 degrees) at 8 MPH (7 knots; 3.6 m/s)
Visibility: 6 or more miles (10+ km)
Ceiling: ceiling and visibility are OK
Clouds: unknown
Weather: no significant weather observed at this time

METAR text: LHBP 210900Z 22006KT 180V250 CAVOK 20/06 Q1022 NOSIG
Conditions at: LHBP (BUDAPEST/FERIHEG, HU) observed 0900 UTC 21 April 2018
Temperature: 20.0°C (68°F)
Dewpoint: 6.0°C (43°F) [RH = 40%]
Pressure (altimeter): 30.18 inches Hg (1022.0 mb)
Winds: from the SW (220 degrees) at 7 MPH (6 knots; 3.1 m/s)
Visibility: 6 or more miles (10+ km)
Ceiling: ceiling and visibility are OK
Clouds: unknown
Weather: no significant weather observed at this time

Forecast for: LHBP (BUDAPEST/FERIHEG, HU)
Text: TAF LHBP 210515Z 2106/2206 VRB03KT CAVOK
Forecast period: 0600 to 0800 UTC 21 April 2018
Forecast type: FROM: standard forecast or significant change
Winds: variable direction winds at 3 MPH (3 knots; 1.6 m/s)
Visibility: 6 or more miles (10+ km)
Clouds: not forecast
Weather: NSW  (no significant weather)
Forecast for: LHBP (BUDAPEST/FERIHEG, HU)
Text: TAF LHBP 210515Z 2106/2206 VRB03KT CAVOK
Forecast period: 0600 to 0800 UTC 21 April 2018
Forecast type: FROM: standard forecast or significant change
Winds: variable direction winds at 3 MPH (3 knots; 1.6 m/s)
Visibility: 6 or more miles (10+ km)
Clouds: not forecast
Weather: NSW  (no significant weather)
Forecast for: LHBP (BUDAPEST/FERIHEG, HU)
Text: TAF LHBP 210515Z 2106/2206 VRB03KT CAVOK
Forecast period: 0800 to 2000 UTC 21 April 2018
Forecast type: BECOMING: Conditions expected to become as follows by 1000 UTC 21 April 2018
Winds: from the SW (220 degrees) at 7 MPH (6 knots; 3.1 m/s)
Visibility: 6 or more miles (10+ km)
Weather: NSW  (no significant weather)
Forecast for: LHBP (BUDAPEST/FERIHEG, HU)
Text: TAF LHBP 210515Z 2106/2206 VRB03KT CAVOK
Forecast period: 0800 to 2000 UTC 21 April 2018
Forecast type: BECOMING: Conditions expected to become as follows by 1000 UTC 21 April 2018
Winds: from the SW (220 degrees) at 7 MPH (6 knots; 3.1 m/s)
Visibility: 6 or more miles (10+ km)
Weather: NSW  (no significant weather)
Forecast for: LHBP (BUDAPEST/FERIHEG, HU)
Text: TAF LHBP 210515Z 2106/2206 VRB03KT CAVOK
Forecast period: 2000 UTC 21 April 2018 to 0600 UTC 22 April 2018
Forecast type: BECOMING: Conditions expected to become as follows by 2200 UTC 21 April 2018
Winds: variable direction winds at 3 MPH (3 knots; 1.6 m/s)
Visibility: 6 or more miles (10+ km)
Weather: NSW  (no significant weather)
Forecast for: LHBP (BUDAPEST/FERIHEG, HU)
Text: TAF LHBP 210515Z 2106/2206 VRB03KT CAVOK
Forecast period: 2000 UTC 21 April 2018 to 0600 UTC 22 April 2018
Forecast type: BECOMING: Conditions expected to become as follows by 2200 UTC 21 April 2018
Winds: variable direction winds at 3 MPH (3 knots; 1.6 m/s)
Visibility: 6 or more miles (10+ km)
Weather: NSW  (no significant weather)

 MAPA DE AEROPUERTO

 INFORMACIÓN DE PISTA
Pista 13L Longitud 12162 ft Ancho 149 ft
Elevación 495 ft Umbral desplazado 0 ft Rumbo de pista 132
Pista 31R Longitud 12162 ft Ancho 149 ft
Elevación 417 ft Umbral desplazado 0 ft Rumbo de pista 312
Pista 13R Longitud 9875 ft Ancho 149 ft
Elevación 450 ft Umbral desplazado 0 ft Rumbo de pista 132
Pista 31L Longitud 9875 ft Ancho 149 ft
Elevación 450 ft Umbral desplazado 0 ft Rumbo de pista 312

 FRECUANCIAS DEL AEROPUERTO
Tipo ACC Nombre BUDAPEST A Frecuencia 129.7 MHZ
Tipo APP Nombre DIRECTOR Frecuencia 119.5 MHZ
Tipo APRS Nombre Apron Guid Frecuencia 122.45 MHZ
Tipo APRW Nombre Apron Guid Frecuencia 131.55 MHZ
Tipo ATIS Nombre ATIS Frecuencia 132.375 MHZ
Tipo CDC Nombre Delivery Frecuencia 134.55 MHZ
Tipo GND Nombre GND Frecuencia 121.9 MHZ
Tipo TWR Nombre TWR Frecuencia 118.1 MHZ

 RADIO AYUDAS DEL AEROPUERTO
Tipo VOR-DME Nombre Budapest Frecuencia 117300 KHZ
Tipo VOR-DME Nombre Monor Frecuencia 112500 KHZ
Tipo NDB Nombre Monor Frecuencia 288 KHZ
Tipo VOR-DME Nombre Tapiosap Frecuencia 115900 KHZ
Tipo NDB Nombre Tapiosap Frecuencia 306 KHZ



Powered by Virtual Airlines Manager [v2.6.2]